Bethany, Kentucky
Current Conditions -  °F | °C
As of 6:53 AM on Friday 19 Dec 2014 (Local Time) from KJKL Reporting Station
Overcast Overcast  
Wind Chill: 29°   Ceiling: 6000
Heat Index: 29°   Visibility: 10mi
Dew Point: 23°   Wind: 3mph
Humidity: 78%   Direction: 20°NNE
Pressure: 30.21"   Gusts: NA
Location:  37.65°N, 83.47°W
Report Text: KJKL 191153Z AUTO 02003KT 10SM FEW016 OVC060 M02/M05 A3021 RMK AO2 SLP243 T10171050 11006 21017 53007 $
Loading
Personal Weather Stations






























Interactive Weather Map New forecast layout! Learn more

10-Day Weather Forecast

Advertisements
Track Severe Weather on mobile